< Typhoon 198512 1985 Season Typhoon 198514 >
Typhoon 198513 (PAT)
General InformationTrack Information on Google MapsDetailed Wind InformationList of All Images || NewsDisaster Info.ResourceGoogle EarthGE AnimationAtom FeedGeoJSON
Detalied Best Track (Time Zone = UTC)
Year Month Day Hour Lat. Long. Pressure (hPa) Wind (kt) Class Image Chart
1985 8 24 06 24.5 123.5 1002 0 2 Image Chart
1985 8 24 12 25.0 124.0 1002 0 2 Image Chart
1985 8 24 18 24.5 124.5 1002 0 2 Image Chart
1985 8 25 00 24.0 124.0 1002 0 2 Image Chart
1985 8 25 06 24.0 123.5 1002 0 2 Image Chart
1985 8 25 12 23.5 123.2 1000 0 2 Image Chart
1985 8 25 18 22.7 122.6 1000 0 2 Image Chart
1985 8 26 00 21.7 122.4 998 0 2 Image Chart
1985 8 26 06 21.5 123.2 996 35 3 Image Chart
1985 8 26 12 21.5 124.0 994 35 3 Image Chart
1985 8 26 18 21.4 125.0 990 35 3 Image Chart
1985 8 27 00 21.4 126.0 985 35 3 Image Chart
1985 8 27 06 21.8 127.0 985 50 4 Image Chart
1985 8 27 12 22.0 127.5 985 50 4 Image Chart
1985 8 27 18 22.5 128.1 985 50 4 Image Chart
1985 8 28 00 22.8 128.8 985 50 4 Image Chart
1985 8 28 06 23.2 129.4 980 55 4 Image Chart
1985 8 28 12 23.6 129.9 975 65 5 Image Chart
1985 8 28 18 23.6 130.0 975 65 5 Image Chart
1985 8 29 00 23.6 130.1 975 65 5 Image Chart
1985 8 29 06 23.7 130.5 970 65 5 Image Chart
1985 8 29 12 24.4 131.0 970 65 5 Image Chart
1985 8 29 18 25.0 131.1 970 60 4 Image Chart
1985 8 30 00 25.9 131.1 970 60 4 Image Chart
1985 8 30 06 27.1 131.1 970 70 5 Image Chart
1985 8 30 12 28.9 130.5 960 70 5 Image Chart
1985 8 30 18 30.9 130.4 955 75 5 Image Chart
1985 8 31 00 33.1 130.2 975 65 5 Image Chart
1985 8 31 06 35.4 130.7 980 60 4 Image Chart
1985 8 31 12 37.6 132.1 980 60 4 Image Chart
1985 8 31 18 39.2 134.2 980 60 4 Image Chart
1985 9 1 00 40.7 136.7 980 60 4 Image Chart
1985 9 1 06 42.2 140.5 985 50 4 Image Chart
1985 9 1 12 42.0 145.0 994 0 6 Image Chart
1985 9 1 18 42.0 151.0 996 0 6 Image Chart
1985 9 2 00 42.0 154.0 1000 0 6 Image Chart
1985 9 2 06 40.0 158.0 1000 0 6 Image Chart
1985 9 2 12 38.0 161.0 1002 0 6 Image Chart
Japan Meteorological Agency Best Track Data | Correction Date : 1992-10-21
< Typhoon 198512 1985 Season Typhoon 198514 >

Help